sensor_id;sensor_type;location;lat;lon;timestamp;pressure;altitude;pressure_sealevel;temperature;humidity
68712;BME280;55690;51.566;19.198;2023-04-15T00:00:59;100527.16;;;14.81;84.37
68712;BME280;55690;51.566;19.198;2023-04-15T00:05:07;100522.73;;;14.51;84.80
68712;BME280;55690;51.566;19.198;2023-04-15T00:09:12;100528.16;;;14.80;85.69
68712;BME280;55690;51.566;19.198;2023-04-15T00:13:18;100528.48;;;14.58;86.53
68712;BME280;55690;51.566;19.198;2023-04-15T00:17:24;100526.43;;;14.31;86.83
68712;BME280;55690;51.566;19.198;2023-04-15T00:21:30;100527.19;;;14.52;86.66
68712;BME280;55690;51.566;19.198;2023-04-15T00:25:36;100522.73;;;14.71;86.16
68712;BME280;55690;51.566;19.198;2023-04-15T00:29:43;100520.72;;;14.44;86.30
68712;BME280;55690;51.566;19.198;2023-04-15T00:33:49;100514.30;;;13.85;87.71
68712;BME280;55690;51.566;19.198;2023-04-15T00:37:55;100515.38;;;14.23;86.58
68712;BME280;55690;51.566;19.198;2023-04-15T00:42:03;100512.74;;;14.02;86.42
68712;BME280;55690;51.566;19.198;2023-04-15T00:46:08;100507.16;;;14.32;86.37
68712;BME280;55690;51.566;19.198;2023-04-15T00:50:14;100510.51;;;14.46;86.25
68712;BME280;55690;51.566;19.198;2023-04-15T00:54:20;100501.45;;;14.55;85.28
68712;BME280;55690;51.566;19.198;2023-04-15T00:58:26;100504.90;;;14.67;84.69
68712;BME280;55690;51.566;19.198;2023-04-15T01:02:33;100512.20;;;14.37;85.77
68712;BME280;55690;51.566;19.198;2023-04-15T01:06:38;100511.79;;;14.22;85.51
68712;BME280;55690;51.566;19.198;2023-04-15T01:10:44;100504.48;;;14.52;85.29
68712;BME280;55690;51.566;19.198;2023-04-15T01:14:52;100505.63;;;14.49;84.95
68712;BME280;55690;51.566;19.198;2023-04-15T01:18:57;100503.32;;;14.64;84.62
68712;BME280;55690;51.566;19.198;2023-04-15T01:23:03;100504.76;;;14.58;85.04
68712;BME280;55690;51.566;19.198;2023-04-15T01:27:09;100509.34;;;14.19;85.75
68712;BME280;55690;51.566;19.198;2023-04-15T01:31:15;100512.64;;;14.23;85.72
68712;BME280;55690;51.566;19.198;2023-04-15T01:35:22;100520.67;;;14.34;85.46
68712;BME280;55690;51.566;19.198;2023-04-15T01:39:28;100516.09;;;14.73;84.22
68712;BME280;55690;51.566;19.198;2023-04-15T01:43:34;100524.60;;;14.51;84.94
68712;BME280;55690;51.566;19.198;2023-04-15T01:47:40;100533.80;;;14.50;85.12
68712;BME280;55690;51.566;19.198;2023-04-15T01:51:46;100528.30;;;14.40;85.37
68712;BME280;55690;51.566;19.198;2023-04-15T01:55:52;100538.52;;;14.28;86.31
68712;BME280;55690;51.566;19.198;2023-04-15T01:59:58;100534.53;;;14.52;85.65
68712;BME280;55690;51.566;19.198;2023-04-15T02:04:05;100541.87;;;14.51;86.15
68712;BME280;55690;51.566;19.198;2023-04-15T02:08:11;100533.37;;;14.45;86.41
68712;BME280;55690;51.566;19.198;2023-04-15T02:12:17;100543.95;;;14.09;87.19
68712;BME280;55690;51.566;19.198;2023-04-15T02:16:23;100538.52;;;14.77;85.54
68712;BME280;55690;51.566;19.198;2023-04-15T02:20:30;100544.16;;;14.56;85.83
68712;BME280;55690;51.566;19.198;2023-04-15T02:24:36;100536.23;;;14.43;86.44
68712;BME280;55690;51.566;19.198;2023-04-15T02:28:42;100531.78;;;14.42;86.90
68712;BME280;55690;51.566;19.198;2023-04-15T02:32:48;100540.94;;;14.31;86.82
68712;BME280;55690;51.566;19.198;2023-04-15T02:36:55;100541.67;;;14.24;87.88
68712;BME280;55690;51.566;19.198;2023-04-15T02:41:00;100541.26;;;14.28;87.41
68712;BME280;55690;51.566;19.198;2023-04-15T02:45:08;100551.46;;;14.26;87.42
68712;BME280;55690;51.566;19.198;2023-04-15T02:49:13;100551.02;;;14.21;87.87
68712;BME280;55690;51.566;19.198;2023-04-15T02:53:19;100552.91;;;13.71;89.44
68712;BME280;55690;51.566;19.198;2023-04-15T02:57:26;100554.39;;;13.94;89.47
68712;BME280;55690;51.566;19.198;2023-04-15T03:01:31;100554.87;;;14.09;89.25
68712;BME280;55690;51.566;19.198;2023-04-15T03:05:38;100557.48;;;14.20;88.89
68712;BME280;55690;51.566;19.198;2023-04-15T03:09:44;100559.21;;;14.21;88.50
68712;BME280;55690;51.566;19.198;2023-04-15T03:13:50;100556.92;;;14.26;89.00
68712;BME280;55690;51.566;19.198;2023-04-15T03:17:56;100560.28;;;14.59;87.53
68712;BME280;55690;51.566;19.198;2023-04-15T03:22:02;100556.68;;;14.68;87.52
68712;BME280;55690;51.566;19.198;2023-04-15T03:26:08;100566.45;;;14.51;88.43
68712;BME280;55690;51.566;19.198;2023-04-15T03:30:14;100565.01;;;14.47;89.05
68712;BME280;55690;51.566;19.198;2023-04-15T03:34:21;100569.24;;;14.11;90.88
68712;BME280;55690;51.566;19.198;2023-04-15T03:38:27;100566.97;;;14.36;90.24
68712;BME280;55690;51.566;19.198;2023-04-15T03:42:33;100573.30;;;14.26;91.30
68712;BME280;55690;51.566;19.198;2023-04-15T03:46:39;100571.79;;;14.62;89.70
68712;BME280;55690;51.566;19.198;2023-04-15T03:50:45;100571.66;;;14.05;92.40
68712;BME280;55690;51.566;19.198;2023-04-15T03:54:52;100581.82;;;14.43;91.42
68712;BME280;55690;51.566;19.198;2023-04-15T03:58:58;100587.10;;;14.25;92.04
68712;BME280;55690;51.566;19.198;2023-04-15T04:03:04;100580.82;;;14.44;91.42
68712;BME280;55690;51.566;19.198;2023-04-15T04:07:16;100586.46;;;14.02;93.48
68712;BME280;55690;51.566;19.198;2023-04-15T04:11:18;100599.59;;;13.47;96.48
68712;BME280;55690;51.566;19.198;2023-04-15T04:15:22;100598.15;;;13.74;95.34
68712;BME280;55690;51.566;19.198;2023-04-15T04:19:29;100586.49;;;14.12;93.76
68712;BME280;55690;51.566;19.198;2023-04-15T04:23:35;100592.23;;;14.09;93.78
68712;BME280;55690;51.566;19.198;2023-04-15T04:27:41;100588.23;;;14.32;92.98
68712;BME280;55690;51.566;19.198;2023-04-15T04:31:47;100591.40;;;14.18;93.14
68712;BME280;55690;51.566;19.198;2023-04-15T04:35:53;100595.72;;;14.20;92.35
68712;BME280;55690;51.566;19.198;2023-04-15T04:39:59;100599.22;;;14.42;91.66
68712;BME280;55690;51.566;19.198;2023-04-15T04:44:06;100591.12;;;14.21;92.88
68712;BME280;55690;51.566;19.198;2023-04-15T04:48:12;100593.70;;;13.73;95.65
68712;BME280;55690;51.566;19.198;2023-04-15T04:52:18;100587.84;;;13.87;95.05
68712;BME280;55690;51.566;19.198;2023-04-15T04:56:24;100593.70;;;13.73;96.06
68712;BME280;55690;51.566;19.198;2023-04-15T05:00:30;100599.38;;;14.00;94.28
68712;BME280;55690;51.566;19.198;2023-04-15T05:04:36;100593.57;;;14.24;94.11
68712;BME280;55690;51.566;19.198;2023-04-15T05:08:43;100592.62;;;13.94;95.12
68712;BME280;55690;51.566;19.198;2023-04-15T05:12:49;100604.47;;;14.14;94.26
68712;BME280;55690;51.566;19.198;2023-04-15T05:16:55;100610.41;;;14.29;94.32
68712;BME280;55690;51.566;19.198;2023-04-15T05:21:01;100606.95;;;14.27;94.30
68712;BME280;55690;51.566;19.198;2023-04-15T05:25:09;100606.66;;;14.40;93.75
68712;BME280;55690;51.566;19.198;2023-04-15T05:29:13;100610.47;;;14.58;93.47
68712;BME280;55690;51.566;19.198;2023-04-15T05:33:20;100622.05;;;14.41;93.16
68712;BME280;55690;51.566;19.198;2023-04-15T05:37:26;100626.48;;;14.32;94.28
68712;BME280;55690;51.566;19.198;2023-04-15T05:41:32;100637.91;;;14.47;94.31
68712;BME280;55690;51.566;19.198;2023-04-15T05:45:38;100638.52;;;14.60;93.91
68712;BME280;55690;51.566;19.198;2023-04-15T05:49:44;100636.98;;;14.37;94.78
68712;BME280;55690;51.566;19.198;2023-04-15T05:53:50;100646.72;;;14.60;94.72
68712;BME280;55690;51.566;19.198;2023-04-15T05:57:57;100639.80;;;14.75;94.42
68712;BME280;55690;51.566;19.198;2023-04-15T06:02:03;100644.15;;;14.68;94.94
68712;BME280;55690;51.566;19.198;2023-04-15T06:06:09;100651.38;;;14.39;95.13
68712;BME280;55690;51.566;19.198;2023-04-15T06:10:15;100655.93;;;14.78;94.94
68712;BME280;55690;51.566;19.198;2023-04-15T06:14:22;100652.36;;;15.07;93.42
68712;BME280;55690;51.566;19.198;2023-04-15T06:18:27;100656.81;;;15.08;93.51
68712;BME280;55690;51.566;19.198;2023-04-15T06:22:36;100656.09;;;14.96;94.47
68712;BME280;55690;51.566;19.198;2023-04-15T06:26:41;100660.85;;;14.35;95.20
68712;BME280;55690;51.566;19.198;2023-04-15T06:30:46;100655.90;;;14.09;96.46
68712;BME280;55690;51.566;19.198;2023-04-15T06:34:52;100656.70;;;14.40;95.35
68712;BME280;55690;51.566;19.198;2023-04-15T06:38:59;100660.81;;;14.65;94.74
68712;BME280;55690;51.566;19.198;2023-04-15T06:43:05;100660.69;;;14.95;93.31
68712;BME280;55690;51.566;19.198;2023-04-15T06:47:11;100676.02;;;14.48;95.67
68712;BME280;55690;51.566;19.198;2023-04-15T06:51:17;100684.84;;;14.21;96.46
68712;BME280;55690;51.566;19.198;2023-04-15T06:55:23;100687.57;;;14.61;95.23
68712;BME280;55690;51.566;19.198;2023-04-15T06:59:29;100693.28;;;14.49;95.76
68712;BME280;55690;51.566;19.198;2023-04-15T07:03:35;100695.72;;;14.12;96.34
68712;BME280;55690;51.566;19.198;2023-04-15T07:07:42;100698.67;;;14.29;96.20
68712;BME280;55690;51.566;19.198;2023-04-15T07:11:48;100708.23;;;14.45;96.00
68712;BME280;55690;51.566;19.198;2023-04-15T07:15:54;100706.29;;;14.36;96.13
68712;BME280;55690;51.566;19.198;2023-04-15T07:20:00;100701.26;;;14.71;94.93
68712;BME280;55690;51.566;19.198;2023-04-15T07:24:06;100716.20;;;14.27;96.50
68712;BME280;55690;51.566;19.198;2023-04-15T07:28:12;100717.77;;;14.60;94.64
68712;BME280;55690;51.566;19.198;2023-04-15T07:32:19;100720.69;;;14.87;93.61
68712;BME280;55690;51.566;19.198;2023-04-15T07:36:25;100713.77;;;14.83;93.67
68712;BME280;55690;51.566;19.198;2023-04-15T07:40:31;100708.48;;;15.01;93.65
68712;BME280;55690;51.566;19.198;2023-04-15T07:44:37;100699.26;;;15.31;93.12
68712;BME280;55690;51.566;19.198;2023-04-15T07:48:43;100706.20;;;15.16;93.83
68712;BME280;55690;51.566;19.198;2023-04-15T07:52:49;100711.20;;;14.91;93.86
68712;BME280;55690;51.566;19.198;2023-04-15T07:56:56;100714.52;;;15.05;93.56
68712;BME280;55690;51.566;19.198;2023-04-15T08:01:03;100717.69;;;15.29;92.67
68712;BME280;55690;51.566;19.198;2023-04-15T08:05:09;100727.13;;;14.77;94.28
68712;BME280;55690;51.566;19.198;2023-04-15T08:09:15;100729.07;;;15.05;92.72
68712;BME280;55690;51.566;19.198;2023-04-15T08:13:20;100720.41;;;15.19;92.53
68712;BME280;55690;51.566;19.198;2023-04-15T08:17:27;100714.81;;;15.30;91.51
68712;BME280;55690;51.566;19.198;2023-04-15T08:21:33;100723.59;;;15.44;91.42
68712;BME280;55690;51.566;19.198;2023-04-15T08:25:39;100729.48;;;15.20;91.64
68712;BME280;55690;51.566;19.198;2023-04-15T08:29:45;100724.47;;;15.06;92.06
68712;BME280;55690;51.566;19.198;2023-04-15T08:33:51;100725.46;;;14.95;92.43
68712;BME280;55690;51.566;19.198;2023-04-15T08:37:57;100730.01;;;14.75;93.25
68712;BME280;55690;51.566;19.198;2023-04-15T08:42:10;100738.85;;;15.27;91.75
68712;BME280;55690;51.566;19.198;2023-04-15T08:46:12;100720.15;;;15.13;92.47
68712;BME280;55690;51.566;19.198;2023-04-15T08:50:17;100735.98;;;15.48;92.08
68712;BME280;55690;51.566;19.198;2023-04-15T08:54:22;100739.28;;;15.71;91.00
68712;BME280;55690;51.566;19.198;2023-04-15T08:58:29;100743.91;;;15.60;91.51
68712;BME280;55690;51.566;19.198;2023-04-15T09:02:34;100746.48;;;15.72;91.56
68712;BME280;55690;51.566;19.198;2023-04-15T09:06:41;100737.40;;;15.81;90.44
68712;BME280;55690;51.566;19.198;2023-04-15T09:10:47;100737.37;;;16.00;90.33
68712;BME280;55690;51.566;19.198;2023-04-15T09:14:53;100746.74;;;15.98;89.90
68712;BME280;55690;51.566;19.198;2023-04-15T09:18:59;100750.80;;;15.84;90.55
68712;BME280;55690;51.566;19.198;2023-04-15T09:23:12;100745.33;;;15.84;89.21
68712;BME280;55690;51.566;19.198;2023-04-15T09:27:15;100758.14;;;15.83;86.32
68712;BME280;55690;51.566;19.198;2023-04-15T09:31:18;100761.51;;;15.58;85.65
68712;BME280;55690;51.566;19.198;2023-04-15T09:35:25;100756.56;;;15.23;85.45
68712;BME280;55690;51.566;19.198;2023-04-15T09:43:43;100759.71;;;14.99;83.12
68712;BME280;55690;51.566;19.198;2023-04-15T09:47:45;100780.73;;;14.98;84.01
68712;BME280;55690;51.566;19.198;2023-04-15T09:51:48;100785.98;;;14.71;84.33
68712;BME280;55690;51.566;19.198;2023-04-15T09:55:57;100785.95;;;14.61;84.29
68712;BME280;55690;51.566;19.198;2023-04-15T10:00:05;100800.57;;;14.51;85.95
68712;BME280;55690;51.566;19.198;2023-04-15T10:04:08;100808.77;;;14.30;86.16
68712;BME280;55690;51.566;19.198;2023-04-15T10:08:16;100815.55;;;14.36;86.44
68712;BME280;55690;51.566;19.198;2023-04-15T10:12:21;100826.77;;;14.53;84.82
68712;BME280;55690;51.566;19.198;2023-04-15T10:16:26;100818.42;;;14.34;86.30
68712;BME280;55690;51.566;19.198;2023-04-15T10:20:33;100824.59;;;14.26;87.30
68712;BME280;55690;51.566;19.198;2023-04-15T10:24:39;100819.28;;;14.35;87.78
68712;BME280;55690;51.566;19.198;2023-04-15T10:28:45;100826.95;;;14.41;87.47
68712;BME280;55690;51.566;19.198;2023-04-15T10:32:50;100817.54;;;14.03;88.10
68712;BME280;55690;51.566;19.198;2023-04-15T10:37:01;100813.95;;;14.03;88.24
68712;BME280;55690;51.566;19.198;2023-04-15T10:41:13;100821.79;;;13.96;87.71
68712;BME280;55690;51.566;19.198;2023-04-15T10:45:18;100817.01;;;14.09;88.59
68712;BME280;55690;51.566;19.198;2023-04-15T10:49:25;100828.26;;;14.16;88.04
68712;BME280;55690;51.566;19.198;2023-04-15T10:53:28;100835.25;;;14.29;88.00
68712;BME280;55690;51.566;19.198;2023-04-15T10:57:37;100834.00;;;14.64;86.63
68712;BME280;55690;51.566;19.198;2023-04-15T11:05:53;100835.91;;;14.43;87.44
68712;BME280;55690;51.566;19.198;2023-04-15T11:09:55;100845.83;;;14.44;87.92
68712;BME280;55690;51.566;19.198;2023-04-15T11:13:57;100839.47;;;14.64;86.95
68712;BME280;55690;51.566;19.198;2023-04-15T11:18:11;100844.94;;;14.64;86.91
68712;BME280;55690;51.566;19.198;2023-04-15T11:22:13;100843.48;;;14.60;87.10
68712;BME280;55690;51.566;19.198;2023-04-15T11:26:15;100850.13;;;14.67;87.50
68712;BME280;55690;51.566;19.198;2023-04-15T11:30:22;100839.65;;;14.21;87.18
68712;BME280;55690;51.566;19.198;2023-04-15T11:34:26;100841.56;;;14.51;87.92
68712;BME280;55690;51.566;19.198;2023-04-15T11:38:33;100843.88;;;14.35;87.35
68712;BME280;55690;51.566;19.198;2023-04-15T11:42:39;100851.02;;;14.47;88.35
68712;BME280;55690;51.566;19.198;2023-04-15T11:46:45;100851.77;;;14.49;86.56
68712;BME280;55690;51.566;19.198;2023-04-15T11:51:03;100852.52;;;14.40;87.39
68712;BME280;55690;51.566;19.198;2023-04-15T11:55:06;100849.29;;;14.76;88.23
68712;BME280;55690;51.566;19.198;2023-04-15T11:59:09;100855.48;;;14.78;87.99
68712;BME280;55690;51.566;19.198;2023-04-15T12:03:18;100843.61;;;14.38;88.54
68712;BME280;55690;51.566;19.198;2023-04-15T12:07:20;100844.43;;;14.49;87.71
68712;BME280;55690;51.566;19.198;2023-04-15T12:11:29;100854.89;;;14.75;88.45
68712;BME280;55690;51.566;19.198;2023-04-15T12:15:31;100847.34;;;14.37;87.14
68712;BME280;55690;51.566;19.198;2023-04-15T12:19:36;100858.55;;;14.54;88.25
68712;BME280;55690;51.566;19.198;2023-04-15T12:27:56;100869.33;;;14.86;87.95
68712;BME280;55690;51.566;19.198;2023-04-15T12:32:05;100873.28;;;14.63;87.97
68712;BME280;55690;51.566;19.198;2023-04-15T12:36:07;100877.19;;;14.70;88.89
68712;BME280;55690;51.566;19.198;2023-04-15T12:40:10;100875.20;;;14.72;87.27
68712;BME280;55690;51.566;19.198;2023-04-15T12:44:11;100870.97;;;14.98;87.11
68712;BME280;55690;51.566;19.198;2023-04-15T12:48:17;100872.67;;;14.59;88.10
68712;BME280;55690;51.566;19.198;2023-04-15T12:52:24;100873.80;;;14.87;88.06
68712;BME280;55690;51.566;19.198;2023-04-15T12:56:30;100871.45;;;15.13;86.43
68712;BME280;55690;51.566;19.198;2023-04-15T13:00:36;100861.93;;;15.17;86.91
68712;BME280;55690;51.566;19.198;2023-04-15T13:04:42;100867.45;;;14.87;87.21
68712;BME280;55690;51.566;19.198;2023-04-15T13:08:48;100859.20;;;15.17;87.27
68712;BME280;55690;51.566;19.198;2023-04-15T13:12:54;100863.96;;;14.75;86.42
68712;BME280;55690;51.566;19.198;2023-04-15T13:17:01;100872.98;;;14.96;86.44
68712;BME280;55690;51.566;19.198;2023-04-15T13:21:08;100871.42;;;15.04;86.79
68712;BME280;55690;51.566;19.198;2023-04-15T13:25:13;100872.42;;;15.03;86.86
68712;BME280;55690;51.566;19.198;2023-04-15T13:29:19;100887.13;;;14.71;87.08
68712;BME280;55690;51.566;19.198;2023-04-15T13:33:26;100896.33;;;14.70;87.90
68712;BME280;55690;51.566;19.198;2023-04-15T13:37:31;100890.28;;;14.46;88.54
68712;BME280;55690;51.566;19.198;2023-04-15T13:41:39;100891.99;;;14.05;91.14
68712;BME280;55690;51.566;19.198;2023-04-15T13:45:45;100889.88;;;14.29;90.52
68712;BME280;55690;51.566;19.198;2023-04-15T13:49:50;100887.32;;;14.38;90.62
68712;BME280;55690;51.566;19.198;2023-04-15T13:53:56;100891.00;;;14.06;92.73
68712;BME280;55690;51.566;19.198;2023-04-15T13:58:03;100906.45;;;14.38;91.87
68712;BME280;55690;51.566;19.198;2023-04-15T14:02:09;100901.95;;;14.78;90.71
68712;BME280;55690;51.566;19.198;2023-04-15T14:06:15;100902.41;;;14.83;89.58
68712;BME280;55690;51.566;19.198;2023-04-15T14:10:21;100906.48;;;14.89;89.20
68712;BME280;55690;51.566;19.198;2023-04-15T14:14:27;100905.55;;;14.48;89.59
68712;BME280;55690;51.566;19.198;2023-04-15T14:18:33;100914.02;;;14.76;89.76
68712;BME280;55690;51.566;19.198;2023-04-15T14:22:39;100923.93;;;14.97;89.71
68712;BME280;55690;51.566;19.198;2023-04-15T14:26:46;100919.60;;;14.95;88.38
68712;BME280;55690;51.566;19.198;2023-04-15T14:30:52;100929.76;;;15.14;87.55
68712;BME280;55690;51.566;19.198;2023-04-15T14:34:58;100927.63;;;15.27;87.50
68712;BME280;55690;51.566;19.198;2023-04-15T14:39:04;100934.32;;;15.04;87.98
68712;BME280;55690;51.566;19.198;2023-04-15T14:43:12;100933.02;;;14.77;88.46
68712;BME280;55690;51.566;19.198;2023-04-15T14:47:16;100943.13;;;15.17;88.61
68712;BME280;55690;51.566;19.198;2023-04-15T14:51:23;100942.23;;;15.47;87.87
68712;BME280;55690;51.566;19.198;2023-04-15T14:55:29;100931.07;;;15.59;86.85
68712;BME280;55690;51.566;19.198;2023-04-15T14:59:35;100942.02;;;15.59;87.61
68712;BME280;55690;51.566;19.198;2023-04-15T15:03:41;100937.32;;;15.41;87.55
68712;BME280;55690;51.566;19.198;2023-04-15T15:07:48;100948.02;;;15.53;87.16
68712;BME280;55690;51.566;19.198;2023-04-15T15:11:53;100943.20;;;15.36;87.43
68712;BME280;55690;51.566;19.198;2023-04-15T15:16:08;100952.88;;;15.40;87.82
68712;BME280;55690;51.566;19.198;2023-04-15T15:20:10;100959.04;;;15.33;87.76
68712;BME280;55690;51.566;19.198;2023-04-15T15:24:12;100955.40;;;15.22;88.78
68712;BME280;55690;51.566;19.198;2023-04-15T15:28:18;100960.59;;;15.66;87.50
68712;BME280;55690;51.566;19.198;2023-04-15T15:32:24;100967.07;;;15.64;87.31
68712;BME280;55690;51.566;19.198;2023-04-15T15:36:30;100969.53;;;15.68;87.04
68712;BME280;55690;51.566;19.198;2023-04-15T15:40:37;100978.47;;;15.29;89.02
68712;BME280;55690;51.566;19.198;2023-04-15T15:44:43;100979.48;;;15.59;86.99
68712;BME280;55690;51.566;19.198;2023-04-15T15:48:49;100985.90;;;15.18;88.07
68712;BME280;55690;51.566;19.198;2023-04-15T15:52:55;100989.35;;;15.50;88.04
68712;BME280;55690;51.566;19.198;2023-04-15T15:57:02;100993.83;;;15.51;87.48
68712;BME280;55690;51.566;19.198;2023-04-15T16:01:08;100983.09;;;15.59;87.56
68712;BME280;55690;51.566;19.198;2023-04-15T16:05:14;100965.31;;;15.54;87.09
68712;BME280;55690;51.566;19.198;2023-04-15T16:09:20;100974.90;;;15.79;87.72
68712;BME280;55690;51.566;19.198;2023-04-15T16:13:26;100975.16;;;15.56;87.01
68712;BME280;55690;51.566;19.198;2023-04-15T16:17:35;100957.52;;;15.49;86.92
68712;BME280;55690;51.566;19.198;2023-04-15T16:21:38;100977.75;;;15.68;86.97
68712;BME280;55690;51.566;19.198;2023-04-15T16:25:44;100978.02;;;15.64;86.92
68712;BME280;55690;51.566;19.198;2023-04-15T16:29:51;100986.76;;;15.18;88.99
68712;BME280;55690;51.566;19.198;2023-04-15T16:33:57;100985.39;;;15.34;87.42
68712;BME280;55690;51.566;19.198;2023-04-15T16:38:03;100996.27;;;15.14;87.34
68712;BME280;55690;51.566;19.198;2023-04-15T16:42:09;101001.23;;;15.00;88.13
68712;BME280;55690;51.566;19.198;2023-04-15T16:46:15;101006.04;;;14.86;87.94
68712;BME280;55690;51.566;19.198;2023-04-15T16:50:22;101022.30;;;14.46;89.54
68712;BME280;55690;51.566;19.198;2023-04-15T16:54:28;101021.78;;;14.20;90.28
68712;BME280;55690;51.566;19.198;2023-04-15T16:58:34;101032.38;;;14.35;89.65
68712;BME280;55690;51.566;19.198;2023-04-15T17:02:40;101040.02;;;14.20;90.43
68712;BME280;55690;51.566;19.198;2023-04-15T17:06:47;101041.59;;;14.66;88.27
68712;BME280;55690;51.566;19.198;2023-04-15T17:10:52;101044.17;;;14.35;89.71
68712;BME280;55690;51.566;19.198;2023-04-15T17:14:59;101028.77;;;14.34;89.34
68712;BME280;55690;51.566;19.198;2023-04-15T17:19:05;101047.75;;;14.47;89.06
68712;BME280;55690;51.566;19.198;2023-04-15T17:23:11;101055.09;;;14.46;89.15
68712;BME280;55690;51.566;19.198;2023-04-15T17:27:17;101049.31;;;14.28;89.12
68712;BME280;55690;51.566;19.198;2023-04-15T17:31:23;101050.36;;;14.05;90.05
68712;BME280;55690;51.566;19.198;2023-04-15T17:35:30;101056.95;;;14.03;90.72
68712;BME280;55690;51.566;19.198;2023-04-15T17:39:36;101057.14;;;13.79;91.55
68712;BME280;55690;51.566;19.198;2023-04-15T17:43:42;101058.26;;;13.76;91.05
68712;BME280;55690;51.566;19.198;2023-04-15T17:47:48;101062.85;;;13.76;91.87
68712;BME280;55690;51.566;19.198;2023-04-15T17:51:54;101060.37;;;13.73;91.74
68712;BME280;55690;51.566;19.198;2023-04-15T17:56:00;101071.28;;;13.73;91.94
68712;BME280;55690;51.566;19.198;2023-04-15T18:00:08;101085.43;;;13.33;93.86
68712;BME280;55690;51.566;19.198;2023-04-15T18:04:13;101075.77;;;13.40;92.36
68712;BME280;55690;51.566;19.198;2023-04-15T18:08:20;101087.58;;;13.06;94.05
68712;BME280;55690;51.566;19.198;2023-04-15T18:12:25;101095.27;;;13.12;94.30
68712;BME280;55690;51.566;19.198;2023-04-15T18:16:31;101097.98;;;13.00;94.25
68712;BME280;55690;51.566;19.198;2023-04-15T18:20:37;101111.20;;;13.18;93.62
68712;BME280;55690;51.566;19.198;2023-04-15T18:24:44;101120.53;;;13.38;92.63
68712;BME280;55690;51.566;19.198;2023-04-15T18:28:50;101131.79;;;13.22;93.68
68712;BME280;55690;51.566;19.198;2023-04-15T18:32:56;101130.46;;;13.72;90.12
68712;BME280;55690;51.566;19.198;2023-04-15T18:37:02;101130.82;;;13.68;90.54
68712;BME280;55690;51.566;19.198;2023-04-15T18:41:08;101137.38;;;13.98;89.54
68712;BME280;55690;51.566;19.198;2023-04-15T18:45:14;101128.93;;;14.13;88.46
68712;BME280;55690;51.566;19.198;2023-04-15T18:49:21;101127.20;;;14.12;88.06
68712;BME280;55690;51.566;19.198;2023-04-15T18:53:27;101138.37;;;14.09;88.36
68712;BME280;55690;51.566;19.198;2023-04-15T18:57:34;101141.10;;;13.97;88.29
68712;BME280;55690;51.566;19.198;2023-04-15T19:01:40;101151.28;;;13.95;88.58
68712;BME280;55690;51.566;19.198;2023-04-15T19:05:46;101152.89;;;13.87;88.70
68712;BME280;55690;51.566;19.198;2023-04-15T19:09:52;101165.66;;;13.97;88.67
68712;BME280;55690;51.566;19.198;2023-04-15T19:13:59;101179.21;;;14.10;88.75
68712;BME280;55690;51.566;19.198;2023-04-15T19:18:05;101180.35;;;13.85;88.53
68712;BME280;55690;51.566;19.198;2023-04-15T19:22:11;101182.21;;;13.85;88.88
68712;BME280;55690;51.566;19.198;2023-04-15T19:26:17;101184.66;;;13.88;88.36
68712;BME280;55690;51.566;19.198;2023-04-15T19:30:23;101192.88;;;13.77;89.55
68712;BME280;55690;51.566;19.198;2023-04-15T19:34:29;101185.65;;;13.64;89.15
68712;BME280;55690;51.566;19.198;2023-04-15T19:38:35;101194.70;;;13.43;87.21
68712;BME280;55690;51.566;19.198;2023-04-15T19:42:41;101180.17;;;13.53;87.44
68712;BME280;55690;51.566;19.198;2023-04-15T19:46:48;101193.30;;;13.48;87.60
68712;BME280;55690;51.566;19.198;2023-04-15T19:50:54;101172.87;;;13.54;86.85
68712;BME280;55690;51.566;19.198;2023-04-15T19:55:00;101192.34;;;13.60;86.55
68712;BME280;55690;51.566;19.198;2023-04-15T19:59:06;101194.18;;;13.14;87.78
68712;BME280;55690;51.566;19.198;2023-04-15T20:03:12;101196.31;;;13.56;86.08
68712;BME280;55690;51.566;19.198;2023-04-15T20:07:18;101204.46;;;13.34;85.72
68712;BME280;55690;51.566;19.198;2023-04-15T20:11:25;101198.13;;;13.34;86.52
68712;BME280;55690;51.566;19.198;2023-04-15T20:15:31;101195.10;;;13.72;85.86
68712;BME280;55690;51.566;19.198;2023-04-15T20:19:37;101207.94;;;13.47;86.46
68712;BME280;55690;51.566;19.198;2023-04-15T20:23:43;101216.00;;;13.49;86.34
68712;BME280;55690;51.566;19.198;2023-04-15T20:27:49;101211.66;;;13.46;86.21
68712;BME280;55690;51.566;19.198;2023-04-15T20:31:56;101213.28;;;13.49;86.57
68712;BME280;55690;51.566;19.198;2023-04-15T20:36:02;101215.05;;;13.61;85.69
68712;BME280;55690;51.566;19.198;2023-04-15T20:40:09;101213.81;;;13.65;85.43
68712;BME280;55690;51.566;19.198;2023-04-15T20:44:15;101216.39;;;13.55;85.37
68712;BME280;55690;51.566;19.198;2023-04-15T20:48:21;101227.11;;;13.23;86.16
68712;BME280;55690;51.566;19.198;2023-04-15T20:52:26;101228.14;;;13.10;86.93
68712;BME280;55690;51.566;19.198;2023-04-15T20:56:33;101235.30;;;13.23;86.70
68712;BME280;55690;51.566;19.198;2023-04-15T21:00:39;101240.54;;;13.14;86.55
68712;BME280;55690;51.566;19.198;2023-04-15T21:04:45;101249.55;;;12.79;87.01
68712;BME280;55690;51.566;19.198;2023-04-15T21:08:51;101252.43;;;13.13;86.83
68712;BME280;55690;51.566;19.198;2023-04-15T21:12:57;101252.55;;;13.11;86.53
68712;BME280;55690;51.566;19.198;2023-04-15T21:17:03;101253.66;;;13.09;86.37
68712;BME280;55690;51.566;19.198;2023-04-15T21:21:10;101258.13;;;13.10;86.61